CDT,Max TemperatureF,Mean TemperatureF,Min TemperatureF,Max Dew PointF,MeanDew PointF,Min DewpointF,Max Humidity, Mean Humidity, Min Humidity, Max Sea Level PressureIn, Mean Sea Level PressureIn, Min Sea Level PressureIn, Max VisibilityMiles, Mean VisibilityMiles, Min VisibilityMiles, Max Wind SpeedMPH, Mean Wind SpeedMPH, Max Gust SpeedMPH,PrecipitationIn, CloudCover, Events, WindDirDegrees
2013-8-1,89,78,66,70,67,64,100,72,46,30.17,30.05,29.86,10,10,5,20,5,,0.00,1,,164
2013-8-2,91,78,66,73,68,59,89,71,55,29.97,29.89,29.84,10,10,10,17,11,22,0.00,1,,108
2013-8-3,80,74,69,72,70,68,100,88,70,30.13,30.05,29.94,10,7,1,16,10,,0.00,7,,63
2013-8-4,82,75,68,72,69,66,94,83,66,30.10,30.06,30.00,10,10,6,9,7,,0.00,6,Thunderstorm,136
2013-8-5,82,76,69,73,72,70,100,89,74,30.03,29.96,29.89,10,6,0,10,4,,0.00,6,Thunderstorm,134
2013-8-6,,,,,,,,,,,,,,,,,,,,,,
2013-8-7,,,,,,,,,,,,,,,,,,,,,,
2013-8-8,,,,,,,,,,,,,,,,,,,,,,
2013-8-9,78,71,62,63,60,55,94,67,47,30.21,30.15,30.12,10,10,9,8,5,,0.00,1,,118
2013-8-10,80,68,57,63,60,55,94,73,48,30.24,30.18,30.10,10,10,6,9,4,,0.00,0,,172
2013-8-11,84,73,62,70,66,61,94,76,55,30.17,30.09,30.01,10,10,10,10,5,,0.00,1,,164
2013-8-12,84,73,62,70,66,61,94,75,51,30.09,30.05,30.00,10,10,9,13,5,,0.00,2,,83
2013-8-13,75,68,62,70,64,61,94,81,65,30.18,30.12,30.06,10,10,5,13,5,,0.00,3,Thunderstorm,70
2013-8-14,77,67,57,64,61,57,100,83,65,30.20,30.14,30.05,10,8,0,8,3,,0.00,5,,155
2013-8-15,86,74,62,70,62,57,100,73,37,30.13,30.04,29.96,10,10,4,8,5,,0.00,1,,211
2013-8-16,82,72,62,66,63,59,94,79,58,30.15,30.10,30.06,10,10,9,10,4,,0.00,5,,124
2013-8-17,78,72,66,66,63,61,94,77,61,30.17,30.13,30.08,10,10,7,13,7,,0.00,8,,144
2013-8-18,82,71,60,64,62,57,88,73,54,30.13,30.09,30.02,10,10,8,13,8,17,0.00,4,,149
2013-8-19,87,74,62,66,63,61,94,70,46,30.10,30.03,29.96,10,10,8,12,6,,0.00,0,,175
2013-8-20,91,78,64,66,64,61,94,65,41,30.03,29.99,29.95,10,10,9,13,6,,0.00,0,,175
2013-8-21,96,82,68,64,62,57,78,52,32,30.03,29.99,29.95,10,10,10,14,8,,0.00,0,,183
2013-8-22,95,82,69,63,58,54,65,48,25,30.07,30.01,29.97,10,10,7,10,7,,0.00,0,,172
2013-8-23,95,83,71,72,66,61,88,64,32,30.06,30.00,29.91,10,10,5,12,8,,0.00,1,Thunderstorm,161
2013-8-24,96,84,71,70,65,63,78,57,34,30.08,30.03,29.99,10,10,10,10,9,,0.00,0,,173
2013-8-25,96,84,71,68,65,63,83,54,32,30.15,30.11,30.06,10,10,10,13,9,,0.00,0,,183
2013-8-26,98,84,71,64,64,61,78,52,32,30.14,30.09,30.02,10,10,10,13,9,,0.00,0,,190
2013-8-27,96,82,69,64,60,57,73,48,27,30.06,30.02,29.96,10,10,10,12,8,,0.00,0,,195
2013-8-28,93,78,64,68,64,61,88,61,34,30.05,30.02,29.98,10,10,4,8,5,,0.00,0,,162
2013-8-29,100,83,66,64,62,57,83,51,25,30.03,29.99,29.93,10,10,4,7,4,,0.00,0,,179
2013-8-30,102,84,66,63,57,54,73,42,21,30.01,29.94,29.87,10,10,5,5,2,,0.00,0,,191
2013-8-31,98,86,73,72,65,57,70,52,35,29.99,29.89,29.81,10,10,6,13,4,,0.00,0,,99